sensor_id;sensor_type;location;lat;lon;timestamp;P1;durP1;ratioP1;P2;durP2;ratioP2
22256;SDS011;11297;42.686;23.374;2022-07-23T00:01:28;15.70;;;10.33;;
22256;SDS011;11297;42.686;23.374;2022-07-23T00:03:54;16.90;;;11.73;;
22256;SDS011;11297;42.686;23.374;2022-07-23T00:06:20;23.00;;;12.23;;
22256;SDS011;11297;42.686;23.374;2022-07-23T00:08:45;19.13;;;10.93;;
22256;SDS011;11297;42.686;23.374;2022-07-23T00:11:11;13.10;;;8.87;;
22256;SDS011;11297;42.686;23.374;2022-07-23T00:13:37;12.77;;;7.77;;
22256;SDS011;11297;42.686;23.374;2022-07-23T00:16:02;11.83;;;7.97;;
22256;SDS011;11297;42.686;23.374;2022-07-23T00:18:28;9.83;;;7.17;;
22256;SDS011;11297;42.686;23.374;2022-07-23T00:20:53;7.97;;;6.80;;
22256;SDS011;11297;42.686;23.374;2022-07-23T00:23:19;7.77;;;7.07;;
22256;SDS011;11297;42.686;23.374;2022-07-23T00:25:44;8.13;;;6.10;;
22256;SDS011;11297;42.686;23.374;2022-07-23T00:28:10;8.27;;;6.20;;
22256;SDS011;11297;42.686;23.374;2022-07-23T00:30:36;8.23;;;6.93;;
22256;SDS011;11297;42.686;23.374;2022-07-23T00:33:03;6.43;;;5.77;;
22256;SDS011;11297;42.686;23.374;2022-07-23T00:35:30;10.27;;;6.70;;
22256;SDS011;11297;42.686;23.374;2022-07-23T00:37:59;10.97;;;5.93;;
22256;SDS011;11297;42.686;23.374;2022-07-23T00:40:25;7.73;;;5.50;;
22256;SDS011;11297;42.686;23.374;2022-07-23T00:42:51;8.07;;;6.53;;
22256;SDS011;11297;42.686;23.374;2022-07-23T00:45:17;8.53;;;6.60;;
22256;SDS011;11297;42.686;23.374;2022-07-23T00:47:43;9.43;;;6.77;;
22256;SDS011;11297;42.686;23.374;2022-07-23T00:50:08;8.13;;;6.07;;
22256;SDS011;11297;42.686;23.374;2022-07-23T00:52:35;10.40;;;6.33;;
22256;SDS011;11297;42.686;23.374;2022-07-23T00:55:03;8.87;;;6.40;;
22256;SDS011;11297;42.686;23.374;2022-07-23T00:57:29;7.77;;;6.10;;
22256;SDS011;11297;42.686;23.374;2022-07-23T00:59:55;7.03;;;6.37;;
22256;SDS011;11297;42.686;23.374;2022-07-23T01:02:21;7.70;;;5.80;;
22256;SDS011;11297;42.686;23.374;2022-07-23T01:04:46;11.83;;;5.50;;
22256;SDS011;11297;42.686;23.374;2022-07-23T01:07:12;7.37;;;6.60;;
22256;SDS011;11297;42.686;23.374;2022-07-23T01:09:38;8.17;;;6.60;;
22256;SDS011;11297;42.686;23.374;2022-07-23T01:12:03;7.53;;;6.57;;
22256;SDS011;11297;42.686;23.374;2022-07-23T01:14:30;7.70;;;6.60;;
22256;SDS011;11297;42.686;23.374;2022-07-23T01:16:55;10.87;;;6.57;;
22256;SDS011;11297;42.686;23.374;2022-07-23T01:19:21;7.23;;;6.23;;
22256;SDS011;11297;42.686;23.374;2022-07-23T01:21:47;7.07;;;6.30;;
22256;SDS011;11297;42.686;23.374;2022-07-23T01:24:13;10.83;;;6.90;;
22256;SDS011;11297;42.686;23.374;2022-07-23T01:26:43;12.43;;;6.57;;
22256;SDS011;11297;42.686;23.374;2022-07-23T01:29:10;7.00;;;6.03;;
22256;SDS011;11297;42.686;23.374;2022-07-23T01:31:36;6.97;;;6.27;;
22256;SDS011;11297;42.686;23.374;2022-07-23T01:34:01;12.10;;;6.67;;
22256;SDS011;11297;42.686;23.374;2022-07-23T01:36:27;7.37;;;6.00;;
22256;SDS011;11297;42.686;23.374;2022-07-23T01:38:52;6.63;;;5.80;;
22256;SDS011;11297;42.686;23.374;2022-07-23T01:41:18;7.77;;;5.90;;
22256;SDS011;11297;42.686;23.374;2022-07-23T01:43:44;8.70;;;6.50;;
22256;SDS011;11297;42.686;23.374;2022-07-23T01:46:09;8.40;;;6.30;;
22256;SDS011;11297;42.686;23.374;2022-07-23T01:48:35;7.03;;;6.03;;
22256;SDS011;11297;42.686;23.374;2022-07-23T01:51:00;10.93;;;5.93;;
22256;SDS011;11297;42.686;23.374;2022-07-23T01:53:26;8.23;;;6.63;;
22256;SDS011;11297;42.686;23.374;2022-07-23T01:55:51;7.47;;;6.30;;
22256;SDS011;11297;42.686;23.374;2022-07-23T01:58:17;9.30;;;6.70;;
22256;SDS011;11297;42.686;23.374;2022-07-23T02:00:42;9.50;;;7.07;;
22256;SDS011;11297;42.686;23.374;2022-07-23T02:03:08;8.17;;;6.60;;
22256;SDS011;11297;42.686;23.374;2022-07-23T02:05:33;6.70;;;6.10;;
22256;SDS011;11297;42.686;23.374;2022-07-23T02:07:59;8.90;;;6.37;;
22256;SDS011;11297;42.686;23.374;2022-07-23T02:10:25;7.90;;;6.20;;
22256;SDS011;11297;42.686;23.374;2022-07-23T02:12:51;9.20;;;6.93;;
22256;SDS011;11297;42.686;23.374;2022-07-23T02:15:17;8.70;;;6.27;;
22256;SDS011;11297;42.686;23.374;2022-07-23T02:17:43;9.40;;;6.63;;
22256;SDS011;11297;42.686;23.374;2022-07-23T02:20:09;9.93;;;6.73;;
22256;SDS011;11297;42.686;23.374;2022-07-23T02:22:35;7.37;;;6.50;;
22256;SDS011;11297;42.686;23.374;2022-07-23T02:25:02;9.43;;;6.93;;
22256;SDS011;11297;42.686;23.374;2022-07-23T02:27:28;10.33;;;6.63;;
22256;SDS011;11297;42.686;23.374;2022-07-23T02:29:53;10.57;;;6.77;;
22256;SDS011;11297;42.686;23.374;2022-07-23T02:32:19;7.43;;;6.43;;
22256;SDS011;11297;42.686;23.374;2022-07-23T02:34:46;8.17;;;6.70;;
22256;SDS011;11297;42.686;23.374;2022-07-23T02:37:12;9.60;;;6.93;;
22256;SDS011;11297;42.686;23.374;2022-07-23T02:39:37;7.87;;;6.83;;
22256;SDS011;11297;42.686;23.374;2022-07-23T02:42:03;12.27;;;6.80;;
22256;SDS011;11297;42.686;23.374;2022-07-23T02:44:29;7.87;;;6.67;;
22256;SDS011;11297;42.686;23.374;2022-07-23T02:46:54;7.37;;;6.60;;
22256;SDS011;11297;42.686;23.374;2022-07-23T02:49:20;8.40;;;6.80;;
22256;SDS011;11297;42.686;23.374;2022-07-23T02:51:45;8.90;;;6.43;;
22256;SDS011;11297;42.686;23.374;2022-07-23T02:54:10;10.93;;;7.13;;
22256;SDS011;11297;42.686;23.374;2022-07-23T02:56:36;10.93;;;7.30;;
22256;SDS011;11297;42.686;23.374;2022-07-23T02:59:02;10.57;;;7.70;;
22256;SDS011;11297;42.686;23.374;2022-07-23T03:01:28;9.83;;;7.67;;
22256;SDS011;11297;42.686;23.374;2022-07-23T03:03:53;11.33;;;8.03;;
22256;SDS011;11297;42.686;23.374;2022-07-23T03:06:18;8.07;;;7.13;;
22256;SDS011;11297;42.686;23.374;2022-07-23T03:08:44;9.00;;;7.57;;
22256;SDS011;11297;42.686;23.374;2022-07-23T03:11:09;13.37;;;7.50;;
22256;SDS011;11297;42.686;23.374;2022-07-23T03:13:38;10.70;;;8.00;;
22256;SDS011;11297;42.686;23.374;2022-07-23T03:16:04;8.80;;;7.00;;
22256;SDS011;11297;42.686;23.374;2022-07-23T03:18:30;11.57;;;8.17;;
22256;SDS011;11297;42.686;23.374;2022-07-23T03:20:56;10.07;;;7.97;;
22256;SDS011;11297;42.686;23.374;2022-07-23T03:23:21;9.63;;;7.63;;
22256;SDS011;11297;42.686;23.374;2022-07-23T03:25:47;12.03;;;7.23;;
22256;SDS011;11297;42.686;23.374;2022-07-23T03:28:13;10.07;;;7.67;;
22256;SDS011;11297;42.686;23.374;2022-07-23T03:30:40;9.63;;;7.90;;
22256;SDS011;11297;42.686;23.374;2022-07-23T03:33:07;11.03;;;8.33;;
22256;SDS011;11297;42.686;23.374;2022-07-23T03:35:32;13.03;;;8.07;;
22256;SDS011;11297;42.686;23.374;2022-07-23T03:37:58;9.93;;;7.63;;
22256;SDS011;11297;42.686;23.374;2022-07-23T03:40:23;12.27;;;8.60;;
22256;SDS011;11297;42.686;23.374;2022-07-23T03:42:49;10.63;;;8.13;;
22256;SDS011;11297;42.686;23.374;2022-07-23T03:45:14;10.63;;;8.43;;
22256;SDS011;11297;42.686;23.374;2022-07-23T03:47:39;10.33;;;7.57;;
22256;SDS011;11297;42.686;23.374;2022-07-23T03:50:05;12.97;;;8.47;;
22256;SDS011;11297;42.686;23.374;2022-07-23T03:52:31;13.03;;;8.23;;
22256;SDS011;11297;42.686;23.374;2022-07-23T03:54:57;11.30;;;8.23;;
22256;SDS011;11297;42.686;23.374;2022-07-23T03:57:22;14.73;;;9.83;;
22256;SDS011;11297;42.686;23.374;2022-07-23T03:59:47;12.10;;;9.17;;
22256;SDS011;11297;42.686;23.374;2022-07-23T04:02:13;9.93;;;8.90;;
22256;SDS011;11297;42.686;23.374;2022-07-23T04:04:39;10.50;;;8.37;;
22256;SDS011;11297;42.686;23.374;2022-07-23T04:07:05;15.67;;;9.10;;
22256;SDS011;11297;42.686;23.374;2022-07-23T04:09:32;10.63;;;8.77;;
22256;SDS011;11297;42.686;23.374;2022-07-23T04:11:57;13.33;;;9.53;;
22256;SDS011;11297;42.686;23.374;2022-07-23T04:14:23;12.20;;;9.00;;
22256;SDS011;11297;42.686;23.374;2022-07-23T04:16:50;18.70;;;9.07;;
22256;SDS011;11297;42.686;23.374;2022-07-23T04:19:16;10.20;;;7.47;;
22256;SDS011;11297;42.686;23.374;2022-07-23T04:21:41;12.47;;;7.93;;
22256;SDS011;11297;42.686;23.374;2022-07-23T04:24:07;9.43;;;7.40;;
22256;SDS011;11297;42.686;23.374;2022-07-23T04:26:32;9.60;;;7.10;;
22256;SDS011;11297;42.686;23.374;2022-07-23T04:28:58;11.33;;;7.93;;
22256;SDS011;11297;42.686;23.374;2022-07-23T04:31:23;8.70;;;7.77;;
22256;SDS011;11297;42.686;23.374;2022-07-23T04:33:49;10.43;;;7.43;;
22256;SDS011;11297;42.686;23.374;2022-07-23T04:36:14;9.90;;;7.10;;
22256;SDS011;11297;42.686;23.374;2022-07-23T04:38:39;12.40;;;7.53;;
22256;SDS011;11297;42.686;23.374;2022-07-23T04:41:05;8.60;;;7.17;;
22256;SDS011;11297;42.686;23.374;2022-07-23T04:43:30;10.23;;;6.77;;
22256;SDS011;11297;42.686;23.374;2022-07-23T04:45:56;9.37;;;6.67;;
22256;SDS011;11297;42.686;23.374;2022-07-23T04:48:21;12.70;;;7.70;;
22256;SDS011;11297;42.686;23.374;2022-07-23T04:50:46;9.60;;;6.47;;
22256;SDS011;11297;42.686;23.374;2022-07-23T04:53:12;10.37;;;7.50;;
22256;SDS011;11297;42.686;23.374;2022-07-23T04:55:37;11.63;;;7.67;;
22256;SDS011;11297;42.686;23.374;2022-07-23T04:58:03;15.10;;;7.87;;
22256;SDS011;11297;42.686;23.374;2022-07-23T05:00:28;9.30;;;7.50;;
22256;SDS011;11297;42.686;23.374;2022-07-23T05:02:53;9.67;;;8.07;;
22256;SDS011;11297;42.686;23.374;2022-07-23T05:05:19;10.97;;;7.80;;
22256;SDS011;11297;42.686;23.374;2022-07-23T05:07:44;10.03;;;6.10;;
22256;SDS011;11297;42.686;23.374;2022-07-23T05:10:10;10.83;;;6.70;;
22256;SDS011;11297;42.686;23.374;2022-07-23T05:12:35;14.93;;;7.40;;
22256;SDS011;11297;42.686;23.374;2022-07-23T05:15:01;13.30;;;8.23;;
22256;SDS011;11297;42.686;23.374;2022-07-23T05:17:26;10.07;;;7.33;;
22256;SDS011;11297;42.686;23.374;2022-07-23T05:19:51;10.27;;;7.67;;
22256;SDS011;11297;42.686;23.374;2022-07-23T05:22:17;9.97;;;6.97;;
22256;SDS011;11297;42.686;23.374;2022-07-23T05:24:42;8.90;;;6.90;;
22256;SDS011;11297;42.686;23.374;2022-07-23T05:27:08;10.63;;;8.50;;
22256;SDS011;11297;42.686;23.374;2022-07-23T05:29:33;10.90;;;7.50;;
22256;SDS011;11297;42.686;23.374;2022-07-23T05:31:59;9.00;;;7.63;;
22256;SDS011;11297;42.686;23.374;2022-07-23T05:34:24;12.67;;;8.03;;
22256;SDS011;11297;42.686;23.374;2022-07-23T05:36:50;12.13;;;7.57;;
22256;SDS011;11297;42.686;23.374;2022-07-23T05:39:15;12.57;;;7.00;;
22256;SDS011;11297;42.686;23.374;2022-07-23T05:41:41;10.43;;;7.47;;
22256;SDS011;11297;42.686;23.374;2022-07-23T05:44:06;7.90;;;7.10;;
22256;SDS011;11297;42.686;23.374;2022-07-23T05:46:31;14.00;;;11.97;;
22256;SDS011;11297;42.686;23.374;2022-07-23T05:48:57;11.50;;;7.83;;
22256;SDS011;11297;42.686;23.374;2022-07-23T05:51:23;8.67;;;6.87;;
22256;SDS011;11297;42.686;23.374;2022-07-23T05:53:49;8.97;;;7.70;;
22256;SDS011;11297;42.686;23.374;2022-07-23T05:56:15;8.53;;;6.30;;
22256;SDS011;11297;42.686;23.374;2022-07-23T05:58:41;9.70;;;7.93;;
22256;SDS011;11297;42.686;23.374;2022-07-23T06:01:07;9.20;;;7.40;;
22256;SDS011;11297;42.686;23.374;2022-07-23T06:03:32;12.40;;;7.13;;
22256;SDS011;11297;42.686;23.374;2022-07-23T06:05:57;10.40;;;7.00;;
22256;SDS011;11297;42.686;23.374;2022-07-23T06:08:23;11.17;;;6.60;;
22256;SDS011;11297;42.686;23.374;2022-07-23T06:10:48;11.53;;;8.20;;
22256;SDS011;11297;42.686;23.374;2022-07-23T06:13:14;10.83;;;8.13;;
22256;SDS011;11297;42.686;23.374;2022-07-23T06:15:39;10.60;;;8.03;;
22256;SDS011;11297;42.686;23.374;2022-07-23T06:18:04;9.83;;;7.87;;
22256;SDS011;11297;42.686;23.374;2022-07-23T06:20:30;9.27;;;7.40;;
22256;SDS011;11297;42.686;23.374;2022-07-23T06:22:55;11.07;;;7.13;;
22256;SDS011;11297;42.686;23.374;2022-07-23T06:25:21;11.67;;;6.73;;
22256;SDS011;11297;42.686;23.374;2022-07-23T06:27:47;13.50;;;7.47;;
22256;SDS011;11297;42.686;23.374;2022-07-23T06:30:13;15.37;;;9.27;;
22256;SDS011;11297;42.686;23.374;2022-07-23T06:32:41;17.13;;;10.10;;
22256;SDS011;11297;42.686;23.374;2022-07-23T06:35:06;11.90;;;7.13;;
22256;SDS011;11297;42.686;23.374;2022-07-23T06:37:32;11.87;;;8.03;;
22256;SDS011;11297;42.686;23.374;2022-07-23T06:39:58;14.53;;;8.27;;
22256;SDS011;11297;42.686;23.374;2022-07-23T06:42:23;17.23;;;8.47;;
22256;SDS011;11297;42.686;23.374;2022-07-23T06:44:48;12.13;;;8.33;;
22256;SDS011;11297;42.686;23.374;2022-07-23T06:47:14;8.37;;;7.43;;
22256;SDS011;11297;42.686;23.374;2022-07-23T06:49:39;13.83;;;9.27;;
22256;SDS011;11297;42.686;23.374;2022-07-23T06:52:06;14.90;;;12.13;;
22256;SDS011;11297;42.686;23.374;2022-07-23T06:54:32;10.90;;;7.07;;
22256;SDS011;11297;42.686;23.374;2022-07-23T06:56:57;15.33;;;9.93;;
22256;SDS011;11297;42.686;23.374;2022-07-23T06:59:22;13.23;;;8.97;;
22256;SDS011;11297;42.686;23.374;2022-07-23T07:01:48;9.17;;;6.50;;
22256;SDS011;11297;42.686;23.374;2022-07-23T07:04:13;9.77;;;7.73;;
22256;SDS011;11297;42.686;23.374;2022-07-23T07:06:39;13.20;;;8.90;;
22256;SDS011;11297;42.686;23.374;2022-07-23T07:09:04;10.57;;;8.63;;
22256;SDS011;11297;42.686;23.374;2022-07-23T07:11:30;9.87;;;7.67;;
22256;SDS011;11297;42.686;23.374;2022-07-23T07:13:55;9.73;;;6.63;;
22256;SDS011;11297;42.686;23.374;2022-07-23T07:16:20;8.53;;;6.67;;
22256;SDS011;11297;42.686;23.374;2022-07-23T07:18:46;11.10;;;9.10;;
22256;SDS011;11297;42.686;23.374;2022-07-23T07:21:11;7.73;;;6.70;;
22256;SDS011;11297;42.686;23.374;2022-07-23T07:23:37;10.17;;;6.33;;
22256;SDS011;11297;42.686;23.374;2022-07-23T07:26:02;13.40;;;8.13;;
22256;SDS011;11297;42.686;23.374;2022-07-23T07:28:28;13.50;;;8.50;;
22256;SDS011;11297;42.686;23.374;2022-07-23T07:30:53;11.93;;;7.97;;
22256;SDS011;11297;42.686;23.374;2022-07-23T07:33:19;14.23;;;7.77;;
22256;SDS011;11297;42.686;23.374;2022-07-23T07:35:46;15.13;;;8.90;;
22256;SDS011;11297;42.686;23.374;2022-07-23T07:38:11;16.10;;;8.70;;
22256;SDS011;11297;42.686;23.374;2022-07-23T07:40:36;12.23;;;10.03;;
22256;SDS011;11297;42.686;23.374;2022-07-23T07:43:02;13.80;;;10.10;;
22256;SDS011;11297;42.686;23.374;2022-07-23T07:45:28;20.83;;;9.90;;
22256;SDS011;11297;42.686;23.374;2022-07-23T07:47:54;20.17;;;10.53;;
22256;SDS011;11297;42.686;23.374;2022-07-23T07:50:20;16.20;;;9.83;;
22256;SDS011;11297;42.686;23.374;2022-07-23T07:52:46;18.10;;;9.93;;
22256;SDS011;11297;42.686;23.374;2022-07-23T07:55:12;16.37;;;9.37;;
22256;SDS011;11297;42.686;23.374;2022-07-23T07:57:38;15.30;;;9.53;;
22256;SDS011;11297;42.686;23.374;2022-07-23T08:00:04;17.40;;;9.43;;
22256;SDS011;11297;42.686;23.374;2022-07-23T08:02:44;13.67;;;9.80;;
22256;SDS011;11297;42.686;23.374;2022-07-23T08:05:18;13.27;;;8.57;;
22256;SDS011;11297;42.686;23.374;2022-07-23T08:07:47;15.97;;;8.80;;
22256;SDS011;11297;42.686;23.374;2022-07-23T08:10:13;18.53;;;8.80;;
22256;SDS011;11297;42.686;23.374;2022-07-23T08:12:42;18.03;;;10.03;;
22256;SDS011;11297;42.686;23.374;2022-07-23T08:15:10;14.43;;;10.50;;
22256;SDS011;11297;42.686;23.374;2022-07-23T08:17:36;13.23;;;8.43;;
22256;SDS011;11297;42.686;23.374;2022-07-23T08:20:03;14.73;;;9.60;;
22256;SDS011;11297;42.686;23.374;2022-07-23T08:25:26;13.33;;;8.00;;
22256;SDS011;11297;42.686;23.374;2022-07-23T08:27:54;14.83;;;8.00;;
22256;SDS011;11297;42.686;23.374;2022-07-23T08:30:20;16.80;;;7.63;;
22256;SDS011;11297;42.686;23.374;2022-07-23T08:37:54;16.33;;;8.50;;
22256;SDS011;11297;42.686;23.374;2022-07-23T08:40:20;13.50;;;6.80;;
22256;SDS011;11297;42.686;23.374;2022-07-23T08:42:47;12.33;;;9.07;;
22256;SDS011;11297;42.686;23.374;2022-07-23T08:45:15;11.47;;;6.93;;
22256;SDS011;11297;42.686;23.374;2022-07-23T08:47:42;11.27;;;6.80;;
22256;SDS011;11297;42.686;23.374;2022-07-23T08:50:08;12.40;;;7.93;;
22256;SDS011;11297;42.686;23.374;2022-07-23T08:52:35;9.93;;;7.07;;
22256;SDS011;11297;42.686;23.374;2022-07-23T08:55:02;10.57;;;6.90;;
22256;SDS011;11297;42.686;23.374;2022-07-23T08:57:28;12.85;;;7.40;;
22256;SDS011;11297;42.686;23.374;2022-07-23T08:59:53;11.90;;;6.35;;
22256;SDS011;11297;42.686;23.374;2022-07-23T09:02:19;14.43;;;7.05;;
22256;SDS011;11297;42.686;23.374;2022-07-23T09:04:44;10.33;;;8.50;;
22256;SDS011;11297;42.686;23.374;2022-07-23T09:07:09;9.60;;;6.35;;
22256;SDS011;11297;42.686;23.374;2022-07-23T09:09:35;12.40;;;6.80;;
22256;SDS011;11297;42.686;23.374;2022-07-23T09:14:36;10.90;;;6.88;;
22256;SDS011;11297;42.686;23.374;2022-07-23T09:17:12;11.45;;;6.63;;
22256;SDS011;11297;42.686;23.374;2022-07-23T09:19:40;10.73;;;7.20;;
22256;SDS011;11297;42.686;23.374;2022-07-23T09:22:16;9.43;;;6.80;;
22256;SDS011;11297;42.686;23.374;2022-07-23T09:25:02;8.25;;;6.22;;
22256;SDS011;11297;42.686;23.374;2022-07-23T09:30:20;8.63;;;7.00;;
22256;SDS011;11297;42.686;23.374;2022-07-23T09:38:17;11.45;;;6.50;;
22256;SDS011;11297;42.686;23.374;2022-07-23T09:40:44;11.80;;;6.57;;
22256;SDS011;11297;42.686;23.374;2022-07-23T09:43:10;9.32;;;6.72;;
22256;SDS011;11297;42.686;23.374;2022-07-23T09:45:36;8.45;;;6.25;;
22256;SDS011;11297;42.686;23.374;2022-07-23T09:48:11;11.07;;;7.72;;
22256;SDS011;11297;42.686;23.374;2022-07-23T09:50:41;8.68;;;5.70;;
22256;SDS011;11297;42.686;23.374;2022-07-23T09:53:07;12.90;;;6.65;;
22256;SDS011;11297;42.686;23.374;2022-07-23T09:55:34;10.13;;;6.03;;
22256;SDS011;11297;42.686;23.374;2022-07-23T09:58:05;10.85;;;6.45;;
22256;SDS011;11297;42.686;23.374;2022-07-23T10:00:40;8.13;;;6.07;;
22256;SDS011;11297;42.686;23.374;2022-07-23T10:03:06;9.05;;;5.82;;
22256;SDS011;11297;42.686;23.374;2022-07-23T10:05:31;13.88;;;7.50;;
22256;SDS011;11297;42.686;23.374;2022-07-23T10:08:00;10.57;;;7.57;;
22256;SDS011;11297;42.686;23.374;2022-07-23T10:10:27;8.43;;;6.30;;
22256;SDS011;11297;42.686;23.374;2022-07-23T10:12:56;9.38;;;5.43;;
22256;SDS011;11297;42.686;23.374;2022-07-23T10:15:27;8.30;;;5.78;;
22256;SDS011;11297;42.686;23.374;2022-07-23T10:17:53;8.43;;;5.68;;
22256;SDS011;11297;42.686;23.374;2022-07-23T10:20:19;6.03;;;5.43;;
22256;SDS011;11297;42.686;23.374;2022-07-23T10:26:16;12.98;;;5.78;;
22256;SDS011;11297;42.686;23.374;2022-07-23T10:34:10;7.63;;;6.03;;
22256;SDS011;11297;42.686;23.374;2022-07-23T10:36:44;10.65;;;7.70;;
22256;SDS011;11297;42.686;23.374;2022-07-23T10:39:19;7.35;;;5.88;;
22256;SDS011;11297;42.686;23.374;2022-07-23T10:41:49;9.90;;;5.47;;
22256;SDS011;11297;42.686;23.374;2022-07-23T10:44:21;6.63;;;5.93;;
22256;SDS011;11297;42.686;23.374;2022-07-23T10:47:02;6.70;;;5.40;;
22256;SDS011;11297;42.686;23.374;2022-07-23T10:49:33;7.80;;;5.70;;
22256;SDS011;11297;42.686;23.374;2022-07-23T10:57:06;11.05;;;6.18;;
22256;SDS011;11297;42.686;23.374;2022-07-23T11:02:39;14.52;;;5.47;;
22256;SDS011;11297;42.686;23.374;2022-07-23T11:05:11;9.68;;;5.90;;
22256;SDS011;11297;42.686;23.374;2022-07-23T11:10:32;12.50;;;6.85;;
22256;SDS011;11297;42.686;23.374;2022-07-23T11:36:56;8.60;;;5.25;;
22256;SDS011;11297;42.686;23.374;2022-07-23T11:39:22;12.32;;;5.85;;
22256;SDS011;11297;42.686;23.374;2022-07-23T11:41:54;14.82;;;5.88;;
22256;SDS011;11297;42.686;23.374;2022-07-23T11:44:38;11.68;;;6.38;;
22256;SDS011;11297;42.686;23.374;2022-07-23T11:47:10;10.20;;;5.68;;
22256;SDS011;11297;42.686;23.374;2022-07-23T11:49:43;10.15;;;5.82;;
22256;SDS011;11297;42.686;23.374;2022-07-23T11:52:17;10.80;;;5.60;;
22256;SDS011;11297;42.686;23.374;2022-07-23T11:54:50;10.85;;;5.25;;
22256;SDS011;11297;42.686;23.374;2022-07-23T11:57:17;9.82;;;5.72;;
22256;SDS011;11297;42.686;23.374;2022-07-23T11:59:46;13.60;;;5.72;;
22256;SDS011;11297;42.686;23.374;2022-07-23T12:02:14;11.68;;;5.30;;
22256;SDS011;11297;42.686;23.374;2022-07-23T12:04:40;10.00;;;5.05;;
22256;SDS011;11297;42.686;23.374;2022-07-23T12:09:48;8.18;;;5.60;;
22256;SDS011;11297;42.686;23.374;2022-07-23T12:12:13;10.45;;;4.85;;
22256;SDS011;11297;42.686;23.374;2022-07-23T12:14:51;11.88;;;5.03;;
22256;SDS011;11297;42.686;23.374;2022-07-23T12:17:19;14.02;;;5.70;;
22256;SDS011;11297;42.686;23.374;2022-07-23T12:19:45;17.63;;;5.45;;
22256;SDS011;11297;42.686;23.374;2022-07-23T12:22:13;11.95;;;4.95;;
22256;SDS011;11297;42.686;23.374;2022-07-23T12:24:58;7.72;;;4.97;;
22256;SDS011;11297;42.686;23.374;2022-07-23T12:27:25;12.27;;;5.45;;
22256;SDS011;11297;42.686;23.374;2022-07-23T12:29:52;10.65;;;5.90;;
22256;SDS011;11297;42.686;23.374;2022-07-23T12:37:49;10.57;;;5.18;;
22256;SDS011;11297;42.686;23.374;2022-07-23T12:43:21;10.07;;;5.30;;
22256;SDS011;11297;42.686;23.374;2022-07-23T12:45:50;15.95;;;5.90;;
22256;SDS011;11297;42.686;23.374;2022-07-23T12:53:16;12.15;;;5.50;;
22256;SDS011;11297;42.686;23.374;2022-07-23T12:55:50;11.07;;;5.00;;
22256;SDS011;11297;42.686;23.374;2022-07-23T12:58:23;15.07;;;6.50;;
22256;SDS011;11297;42.686;23.374;2022-07-23T13:00:50;13.32;;;6.38;;
22256;SDS011;11297;42.686;23.374;2022-07-23T13:03:22;13.20;;;5.50;;
22256;SDS011;11297;42.686;23.374;2022-07-23T13:05:49;11.20;;;5.22;;
22256;SDS011;11297;42.686;23.374;2022-07-23T13:08:14;15.18;;;5.38;;
22256;SDS011;11297;42.686;23.374;2022-07-23T13:10:40;12.90;;;4.95;;
22256;SDS011;11297;42.686;23.374;2022-07-23T13:13:11;8.40;;;4.80;;
22256;SDS011;11297;42.686;23.374;2022-07-23T13:15:37;14.10;;;5.53;;
22256;SDS011;11297;42.686;23.374;2022-07-23T13:18:02;11.18;;;5.18;;
22256;SDS011;11297;42.686;23.374;2022-07-23T13:20:28;10.35;;;5.50;;
22256;SDS011;11297;42.686;23.374;2022-07-23T13:22:53;16.05;;;8.75;;
22256;SDS011;11297;42.686;23.374;2022-07-23T13:25:19;9.90;;;4.95;;
22256;SDS011;11297;42.686;23.374;2022-07-23T13:27:44;10.90;;;6.10;;
22256;SDS011;11297;42.686;23.374;2022-07-23T13:30:10;11.73;;;7.10;;
22256;SDS011;11297;42.686;23.374;2022-07-23T13:32:36;13.30;;;5.30;;
22256;SDS011;11297;42.686;23.374;2022-07-23T13:35:02;13.52;;;5.60;;
22256;SDS011;11297;42.686;23.374;2022-07-23T13:37:28;10.27;;;4.47;;
22256;SDS011;11297;42.686;23.374;2022-07-23T13:39:54;10.27;;;4.60;;
22256;SDS011;11297;42.686;23.374;2022-07-23T13:42:19;11.02;;;4.85;;
22256;SDS011;11297;42.686;23.374;2022-07-23T13:44:45;13.55;;;5.60;;
22256;SDS011;11297;42.686;23.374;2022-07-23T13:47:10;10.30;;;4.95;;
22256;SDS011;11297;42.686;23.374;2022-07-23T13:49:36;11.98;;;4.97;;
22256;SDS011;11297;42.686;23.374;2022-07-23T13:52:02;10.13;;;5.47;;
22256;SDS011;11297;42.686;23.374;2022-07-23T13:54:28;12.32;;;4.53;;
22256;SDS011;11297;42.686;23.374;2022-07-23T13:56:54;10.93;;;4.65;;
22256;SDS011;11297;42.686;23.374;2022-07-23T13:59:20;14.02;;;4.97;;
22256;SDS011;11297;42.686;23.374;2022-07-23T14:01:46;10.70;;;4.88;;
22256;SDS011;11297;42.686;23.374;2022-07-23T14:04:11;11.93;;;5.28;;
22256;SDS011;11297;42.686;23.374;2022-07-23T14:06:37;10.95;;;4.78;;
22256;SDS011;11297;42.686;23.374;2022-07-23T14:09:02;10.93;;;4.82;;
22256;SDS011;11297;42.686;23.374;2022-07-23T14:11:27;12.63;;;5.53;;
22256;SDS011;11297;42.686;23.374;2022-07-23T14:13:55;11.23;;;5.10;;
22256;SDS011;11297;42.686;23.374;2022-07-23T14:16:21;11.40;;;4.68;;
22256;SDS011;11297;42.686;23.374;2022-07-23T14:18:46;11.10;;;5.35;;
22256;SDS011;11297;42.686;23.374;2022-07-23T14:21:12;10.45;;;5.65;;
22256;SDS011;11297;42.686;23.374;2022-07-23T14:23:37;9.55;;;4.40;;
22256;SDS011;11297;42.686;23.374;2022-07-23T14:26:03;14.27;;;5.40;;
22256;SDS011;11297;42.686;23.374;2022-07-23T14:28:28;8.73;;;5.07;;
22256;SDS011;11297;42.686;23.374;2022-07-23T14:30:54;12.68;;;4.85;;
22256;SDS011;11297;42.686;23.374;2022-07-23T14:33:19;9.13;;;4.68;;
22256;SDS011;11297;42.686;23.374;2022-07-23T14:35:45;9.73;;;4.80;;
22256;SDS011;11297;42.686;23.374;2022-07-23T14:38:11;10.05;;;4.43;;
22256;SDS011;11297;42.686;23.374;2022-07-23T14:40:36;13.65;;;5.40;;
22256;SDS011;11297;42.686;23.374;2022-07-23T14:43:02;12.30;;;4.78;;
22256;SDS011;11297;42.686;23.374;2022-07-23T14:45:27;13.38;;;4.47;;
22256;SDS011;11297;42.686;23.374;2022-07-23T14:47:55;11.35;;;5.05;;
22256;SDS011;11297;42.686;23.374;2022-07-23T14:50:20;10.82;;;5.13;;
22256;SDS011;11297;42.686;23.374;2022-07-23T14:52:46;16.05;;;5.30;;
22256;SDS011;11297;42.686;23.374;2022-07-23T14:55:11;11.07;;;4.88;;
22256;SDS011;11297;42.686;23.374;2022-07-23T14:57:37;9.27;;;4.47;;
22256;SDS011;11297;42.686;23.374;2022-07-23T15:00:03;11.68;;;5.00;;
22256;SDS011;11297;42.686;23.374;2022-07-23T15:02:30;12.30;;;5.25;;
22256;SDS011;11297;42.686;23.374;2022-07-23T15:04:55;8.68;;;4.30;;
22256;SDS011;11297;42.686;23.374;2022-07-23T15:07:23;12.80;;;4.78;;
22256;SDS011;11297;42.686;23.374;2022-07-23T15:09:48;11.20;;;4.70;;
22256;SDS011;11297;42.686;23.374;2022-07-23T15:12:13;9.68;;;5.00;;
22256;SDS011;11297;42.686;23.374;2022-07-23T15:14:39;7.53;;;5.32;;
22256;SDS011;11297;42.686;23.374;2022-07-23T15:17:04;6.82;;;4.80;;
22256;SDS011;11297;42.686;23.374;2022-07-23T15:19:30;9.80;;;5.53;;
22256;SDS011;11297;42.686;23.374;2022-07-23T15:21:55;8.20;;;5.07;;
22256;SDS011;11297;42.686;23.374;2022-07-23T15:24:24;5.85;;;4.63;;
22256;SDS011;11297;42.686;23.374;2022-07-23T15:26:49;9.98;;;5.05;;
22256;SDS011;11297;42.686;23.374;2022-07-23T15:29:15;5.78;;;4.13;;
22256;SDS011;11297;42.686;23.374;2022-07-23T15:31:40;9.47;;;5.27;;
22256;SDS011;11297;42.686;23.374;2022-07-23T15:34:06;9.93;;;4.87;;
22256;SDS011;11297;42.686;23.374;2022-07-23T15:36:31;9.07;;;5.03;;
22256;SDS011;11297;42.686;23.374;2022-07-23T15:38:57;11.03;;;5.07;;
22256;SDS011;11297;42.686;23.374;2022-07-23T15:41:22;8.90;;;5.57;;